Time;durP1;ratioP1;P1;durP2;ratioP2;P2;SDS_P1;SDS_P2;PMS_P1;PMS_P2;Temp;Humidity;BMP_temperature;BMP_pressure;BME280_temperature;BME280_humidity;BME280_pressure;Samples;Min_cycle;Max_cycle;Signal;HPM_P1;HPM_P2
2023/11/14 00:00:27;;;;;;;2.90;1.57;;;;;;;;;;776735;178;940038;-64
2023/11/14 00:02:53;;;;;;;2.77;1.77;;;;;;;;;;785962;179;919346;-67
2023/11/14 00:05:18;;;;;;;3.60;1.77;;;;;;;;;;779753;178;918779;-65
2023/11/14 00:07:44;;;;;;;3.10;1.90;;;;;;;;;;774791;179;918619;-65
2023/11/14 00:10:10;;;;;;;3.30;2.17;;;;;;;;;;779509;179;916808;-67
2023/11/14 00:12:37;;;;;;;2.67;1.40;;;;;;;;;;778326;177;918567;-67
2023/11/14 00:15:03;;;;;;;3.30;1.83;;;;;;;;;;771341;179;918683;-65
2023/11/14 00:17:29;;;;;;;3.83;2.13;;;;;;;;;;778666;176;919625;-64
2023/11/14 00:19:55;;;;;;;2.70;1.73;;;;;;;;;;778097;179;918917;-65
2023/11/14 00:22:20;;;;;;;3.30;2.20;;;;;;;;;;776523;176;918381;-67
2023/11/14 00:24:47;;;;;;;4.13;2.50;;;;;;;;;;772858;179;920569;-67
2023/11/14 00:27:12;;;;;;;6.10;2.27;;;;;;;;;;779802;179;919354;-65
2023/11/14 00:29:38;;;;;;;4.00;2.80;;;;;;;;;;771845;179;918916;-66
2023/11/14 00:32:04;;;;;;;3.60;2.60;;;;;;;;;;772020;179;919308;-68
2023/11/14 00:34:31;;;;;;;4.70;2.43;;;;;;;;;;778062;179;917310;-65
2023/11/14 00:36:56;;;;;;;5.90;2.60;;;;;;;;;;777072;179;917358;-69
2023/11/14 00:39:21;;;;;;;3.95;2.40;;;;;;;;;;774753;179;924368;-64
2023/11/14 00:41:53;;;;;;;3.23;2.23;;;;;;;;;;784749;179;788586;-64
2023/11/14 00:44:13;;;;;;;3.63;2.50;;;;;;;;;;779946;179;918981;-63
2023/11/14 00:46:39;;;;;;;6.77;2.37;;;;;;;;;;777307;178;911733;-64
2023/11/14 00:49:05;;;;;;;3.30;2.50;;;;;;;;;;778156;177;934211;-67
2023/11/14 00:51:31;;;;;;;2.87;1.87;;;;;;;;;;780642;180;910176;-65
2023/11/14 00:53:56;;;;;;;3.17;2.13;;;;;;;;;;777511;175;919670;-66
2023/11/14 00:56:22;;;;;;;2.90;1.87;;;;;;;;;;780941;176;932245;-64
2023/11/14 00:58:48;;;;;;;3.80;2.57;;;;;;;;;;782361;178;615096;-67
2023/11/14 01:01:14;;;;;;;5.10;2.90;;;;;;;;;;768282;179;921106;-66
2023/11/14 01:03:40;;;;;;;4.33;2.50;;;;;;;;;;781871;178;919233;-66
2023/11/14 01:06:06;;;;;;;4.60;2.83;;;;;;;;;;783395;178;816906;-67
2023/11/14 01:08:32;;;;;;;5.18;2.30;;;;;;;;;;780053;178;938332;-65
2023/11/14 01:10:57;;;;;;;7.20;2.60;;;;;;;;;;771040;180;917880;-67
2023/11/14 01:13:23;;;;;;;3.95;2.90;;;;;;;;;;776733;177;919924;-65
2023/11/14 01:15:49;;;;;;;4.27;2.63;;;;;;;;;;770006;180;916520;-67
2023/11/14 01:18:16;;;;;;;6.70;2.93;;;;;;;;;;773373;179;916755;-66
2023/11/14 01:20:42;;;;;;;4.60;3.07;;;;;;;;;;773700;179;920305;-64
2023/11/14 01:23:08;;;;;;;4.90;3.13;;;;;;;;;;783666;178;919946;-64
2023/11/14 01:25:34;;;;;;;6.53;3.07;;;;;;;;;;774027;179;924443;-67
2023/11/14 01:27:59;;;;;;;4.43;2.87;;;;;;;;;;774183;179;923692;-64
2023/11/14 01:30:25;;;;;;;3.70;2.47;;;;;;;;;;782907;179;918753;-67
2023/11/14 01:32:51;;;;;;;3.80;2.70;;;;;;;;;;778714;178;917530;-66
2023/11/14 01:35:17;;;;;;;5.40;2.93;;;;;;;;;;776174;179;919174;-64
2023/11/14 01:37:43;;;;;;;6.43;3.50;;;;;;;;;;776543;179;823553;-67
2023/11/14 01:40:09;;;;;;;4.40;3.17;;;;;;;;;;777096;179;916371;-64
2023/11/14 01:42:35;;;;;;;4.57;3.43;;;;;;;;;;772006;179;918889;-66
2023/11/14 01:45:00;;;;;;;5.40;3.67;;;;;;;;;;775494;179;819127;-65
2023/11/14 01:47:26;;;;;;;5.50;4.27;;;;;;;;;;781033;178;762198;-64
2023/11/14 01:49:52;;;;;;;5.53;3.17;;;;;;;;;;776261;179;917698;-65
2023/11/14 01:52:18;;;;;;;4.72;3.97;;;;;;;;;;772471;179;818610;-63
2023/11/14 01:54:44;;;;;;;5.77;3.50;;;;;;;;;;778783;179;910402;-65
2023/11/14 01:57:10;;;;;;;5.17;3.67;;;;;;;;;;773377;179;919276;-66
2023/11/14 01:59:35;;;;;;;5.07;3.60;;;;;;;;;;776191;179;916188;-67
2023/11/14 02:02:01;;;;;;;4.73;3.40;;;;;;;;;;776883;178;915873;-67
2023/11/14 02:04:27;;;;;;;5.50;3.60;;;;;;;;;;778278;179;896121;-64
2023/11/14 02:06:53;;;;;;;6.93;3.97;;;;;;;;;;781385;178;920096;-65
2023/11/14 02:09:20;;;;;;;5.50;3.60;;;;;;;;;;776083;178;920505;-65
2023/11/14 02:11:45;;;;;;;5.00;3.50;;;;;;;;;;772784;179;910996;-64
2023/11/14 02:14:11;;;;;;;5.80;4.03;;;;;;;;;;771877;178;918955;-66
2023/11/14 02:16:42;;;;;;;5.90;3.30;;;;;;;;;;777048;178;921552;-64
2023/11/14 02:19:08;;;;;;;4.53;3.07;;;;;;;;;;777292;178;915315;-67
2023/11/14 02:21:34;;;;;;;4.83;3.50;;;;;;;;;;774808;178;815170;-65
2023/11/14 02:24:00;;;;;;;5.53;3.40;;;;;;;;;;776744;178;929115;-67
2023/11/14 02:26:25;;;;;;;5.60;3.70;;;;;;;;;;775827;179;919336;-68
2023/11/14 02:28:51;;;;;;;7.27;3.53;;;;;;;;;;772590;178;918064;-67
2023/11/14 02:31:17;;;;;;;6.33;3.87;;;;;;;;;;773230;178;1016638;-63
2023/11/14 02:33:43;;;;;;;5.87;3.50;;;;;;;;;;774892;179;918923;-67
2023/11/14 02:36:09;;;;;;;5.90;3.33;;;;;;;;;;782088;179;918899;-67
2023/11/14 02:38:35;;;;;;;5.13;3.07;;;;;;;;;;775610;178;919763;-63
2023/11/14 02:41:01;;;;;;;7.20;3.23;;;;;;;;;;779307;179;918524;-67
2023/11/14 02:43:27;;;;;;;6.03;2.40;;;;;;;;;;785061;179;919405;-65
2023/11/14 02:45:52;;;;;;;4.40;2.60;;;;;;;;;;776151;179;916477;-64
2023/11/14 02:48:19;;;;;;;3.90;2.47;;;;;;;;;;780332;175;919326;-63
2023/11/14 02:50:53;;;;;;;5.33;3.50;;;;;;;;;;783058;179;815716;-67
2023/11/14 02:53:20;;;;;;;3.73;2.67;;;;;;;;;;773800;180;817665;-68
2023/11/14 02:55:46;;;;;;;4.83;3.27;;;;;;;;;;770520;179;919151;-67
2023/11/14 02:58:12;;;;;;;4.80;3.60;;;;;;;;;;772245;179;937826;-64
2023/11/14 03:00:38;;;;;;;4.70;3.37;;;;;;;;;;784853;179;917391;-67
2023/11/14 03:03:04;;;;;;;4.83;2.97;;;;;;;;;;775703;179;919309;-64
2023/11/14 03:05:30;;;;;;;6.00;3.67;;;;;;;;;;776882;179;917408;-63
2023/11/14 03:07:56;;;;;;;5.50;3.33;;;;;;;;;;778850;178;918712;-64
2023/11/14 03:10:21;;;;;;;4.87;2.80;;;;;;;;;;770625;180;917678;-63
2023/11/14 03:12:47;;;;;;;4.43;3.00;;;;;;;;;;779016;179;920068;-64
2023/11/14 03:15:13;;;;;;;4.13;2.90;;;;;;;;;;772298;179;817664;-63
2023/11/14 03:17:39;;;;;;;4.87;3.30;;;;;;;;;;774901;179;821216;-67
2023/11/14 03:20:06;;;;;;;4.77;3.37;;;;;;;;;;779654;178;917463;-63
2023/11/14 03:22:31;;;;;;;5.37;3.17;;;;;;;;;;780193;176;817776;-64
2023/11/14 03:24:57;;;;;;;3.80;2.62;;;;;;;;;;780479;180;918015;-63
2023/11/14 03:27:23;;;;;;;5.00;3.60;;;;;;;;;;779375;178;912941;-63
2023/11/14 03:29:49;;;;;;;5.20;3.00;;;;;;;;;;773613;179;919551;-63
2023/11/14 03:32:14;;;;;;;3.80;2.67;;;;;;;;;;783539;178;919577;-64
2023/11/14 03:34:40;;;;;;;5.70;2.80;;;;;;;;;;775685;178;919355;-67
2023/11/14 03:37:06;;;;;;;8.83;2.83;;;;;;;;;;778785;179;918415;-63
2023/11/14 03:39:33;;;;;;;4.67;2.70;;;;;;;;;;778325;179;918540;-63
2023/11/14 03:41:58;;;;;;;4.03;2.80;;;;;;;;;;784175;179;714697;-64
2023/11/14 03:44:24;;;;;;;4.87;3.40;;;;;;;;;;773252;179;814139;-67
2023/11/14 03:46:50;;;;;;;4.63;3.20;;;;;;;;;;776298;179;916732;-67
2023/11/14 03:49:16;;;;;;;4.00;2.97;;;;;;;;;;776020;179;943371;-63
2023/11/14 03:51:41;;;;;;;4.03;2.80;;;;;;;;;;778562;179;916044;-63
2023/11/14 03:54:07;;;;;;;4.40;2.72;;;;;;;;;;779727;176;816218;-67
2023/11/14 03:56:33;;;;;;;4.73;2.87;;;;;;;;;;780931;179;918282;-67
2023/11/14 03:58:59;;;;;;;4.60;2.73;;;;;;;;;;774846;179;918952;-63
2023/11/14 04:01:24;;;;;;;5.90;4.47;;;;;;;;;;777021;179;918327;-63
2023/11/14 04:03:50;;;;;;;4.78;3.03;;;;;;;;;;775594;179;918685;-66
2023/11/14 04:06:16;;;;;;;5.87;3.00;;;;;;;;;;773314;180;819372;-67
2023/11/14 04:08:42;;;;;;;6.30;3.50;;;;;;;;;;772007;179;918804;-67
2023/11/14 04:11:08;;;;;;;4.80;3.17;;;;;;;;;;774320;179;929710;-66
2023/11/14 04:13:34;;;;;;;4.90;3.50;;;;;;;;;;782082;179;920392;-65
2023/11/14 04:16:00;;;;;;;8.00;3.27;;;;;;;;;;773991;179;919004;-63
2023/11/14 04:18:25;;;;;;;4.40;3.40;;;;;;;;;;778334;178;918987;-63
2023/11/14 04:20:51;;;;;;;5.10;3.30;;;;;;;;;;782335;178;917127;-68
2023/11/14 04:23:17;;;;;;;7.13;3.60;;;;;;;;;;773006;179;1017984;-65
2023/11/14 04:25:43;;;;;;;4.50;3.43;;;;;;;;;;775822;179;921150;-67
2023/11/14 04:28:09;;;;;;;5.40;3.40;;;;;;;;;;780388;179;917922;-63
2023/11/14 04:30:35;;;;;;;6.30;3.33;;;;;;;;;;781797;178;912669;-67
2023/11/14 04:33:00;;;;;;;4.13;2.90;;;;;;;;;;778735;178;920994;-64
2023/11/14 04:35:26;;;;;;;5.03;2.73;;;;;;;;;;770608;178;919126;-66
2023/11/14 04:37:55;;;;;;;4.80;3.00;;;;;;;;;;775712;179;919130;-63
2023/11/14 04:40:18;;;;;;;4.53;2.33;;;;;;;;;;778803;178;917104;-66
2023/11/14 04:42:45;;;;;;;6.00;3.03;;;;;;;;;;775861;178;916380;-67
2023/11/14 04:45:10;;;;;;;4.97;2.30;;;;;;;;;;781514;178;917326;-67
2023/11/14 04:47:35;;;;;;;3.43;1.90;;;;;;;;;;775349;177;918726;-68
2023/11/14 04:50:01;;;;;;;3.20;2.17;;;;;;;;;;778897;179;912794;-64
2023/11/14 04:52:27;;;;;;;3.97;2.30;;;;;;;;;;774850;179;920653;-67
2023/11/14 04:54:53;;;;;;;5.17;2.30;;;;;;;;;;778790;179;919723;-67
2023/11/14 04:57:19;;;;;;;3.93;1.97;;;;;;;;;;778703;178;819210;-64
2023/11/14 04:59:46;;;;;;;3.47;2.20;;;;;;;;;;781407;179;841009;-64
2023/11/14 05:02:11;;;;;;;3.10;2.13;;;;;;;;;;773317;177;919407;-66
2023/11/14 05:04:37;;;;;;;3.17;1.80;;;;;;;;;;775751;179;915407;-63
2023/11/14 05:07:03;;;;;;;6.77;1.80;;;;;;;;;;775945;179;926841;-66
2023/11/14 05:09:29;;;;;;;3.13;1.90;;;;;;;;;;780133;179;919011;-67
2023/11/14 05:11:55;;;;;;;2.90;1.97;;;;;;;;;;771102;179;919070;-63
2023/11/14 05:14:21;;;;;;;3.10;1.90;;;;;;;;;;777543;179;915200;-63
2023/11/14 05:16:46;;;;;;;3.60;1.90;;;;;;;;;;782897;179;845889;-63
2023/11/14 05:19:12;;;;;;;3.93;2.17;;;;;;;;;;774647;179;919931;-67
2023/11/14 05:21:38;;;;;;;4.57;2.58;;;;;;;;;;775797;179;923569;-67
2023/11/14 05:24:05;;;;;;;3.80;2.50;;;;;;;;;;781520;179;813246;-67
2023/11/14 05:26:30;;;;;;;4.50;2.00;;;;;;;;;;777654;179;821636;-67
2023/11/14 05:28:56;;;;;;;3.97;2.07;;;;;;;;;;775287;179;918990;-68
2023/11/14 05:31:22;;;;;;;3.90;2.00;;;;;;;;;;778736;179;813266;-64
2023/11/14 05:33:49;;;;;;;3.07;1.83;;;;;;;;;;784183;179;900385;-64
2023/11/14 05:36:13;;;;;;;5.03;2.63;;;;;;;;;;777568;179;915750;-64
2023/11/14 05:38:39;;;;;;;3.50;2.13;;;;;;;;;;778100;178;895771;-64
2023/11/14 05:41:05;;;;;;;4.33;2.37;;;;;;;;;;784092;178;619343;-64
2023/11/14 05:43:31;;;;;;;3.67;2.60;;;;;;;;;;781534;177;617394;-67
2023/11/14 05:45:57;;;;;;;3.63;2.17;;;;;;;;;;779530;178;638906;-64
2023/11/14 05:48:23;;;;;;;4.07;1.90;;;;;;;;;;786920;178;694495;-66
2023/11/14 05:50:48;;;;;;;3.90;2.00;;;;;;;;;;781757;178;632266;-68
2023/11/14 05:53:15;;;;;;;3.33;2.20;;;;;;;;;;780695;178;636041;-64
2023/11/14 05:55:40;;;;;;;3.13;2.20;;;;;;;;;;781896;178;617199;-66
2023/11/14 05:58:06;;;;;;;3.60;2.10;;;;;;;;;;777230;180;614148;-64
2023/11/14 06:00:32;;;;;;;3.30;2.10;;;;;;;;;;782056;178;815423;-64
2023/11/14 06:02:58;;;;;;;4.07;1.90;;;;;;;;;;781385;179;811626;-64
2023/11/14 06:05:24;;;;;;;4.63;2.23;;;;;;;;;;780985;179;911166;-67
2023/11/14 06:07:50;;;;;;;3.43;2.13;;;;;;;;;;774938;179;914160;-67
2023/11/14 06:10:16;;;;;;;3.27;2.00;;;;;;;;;;778351;179;911818;-68
2023/11/14 06:12:41;;;;;;;4.27;2.10;;;;;;;;;;781408;179;918227;-67
2023/11/14 06:15:08;;;;;;;3.70;2.03;;;;;;;;;;778347;179;918480;-65
2023/11/14 06:17:34;;;;;;;4.10;2.60;;;;;;;;;;770979;179;908560;-64
2023/11/14 06:20:00;;;;;;;4.30;1.70;;;;;;;;;;781809;179;918875;-64
2023/11/14 06:22:26;;;;;;;4.50;2.17;;;;;;;;;;776357;177;823021;-66
2023/11/14 06:24:52;;;;;;;4.20;2.40;;;;;;;;;;775812;179;915064;-64
2023/11/14 06:27:18;;;;;;;3.93;2.17;;;;;;;;;;774927;179;833663;-64
2023/11/14 06:29:43;;;;;;;2.73;1.80;;;;;;;;;;779367;179;816465;-66
2023/11/14 06:32:09;;;;;;;2.30;1.55;;;;;;;;;;770636;179;1024168;-67
2023/11/14 06:34:35;;;;;;;4.20;2.10;;;;;;;;;;776118;178;918950;-65
2023/11/14 06:37:01;;;;;;;2.93;1.67;;;;;;;;;;779904;179;915542;-63
2023/11/14 06:39:27;;;;;;;4.73;2.63;;;;;;;;;;779009;178;816540;-66
2023/11/14 06:41:53;;;;;;;6.00;3.17;;;;;;;;;;773730;179;918794;-64
2023/11/14 06:44:19;;;;;;;6.93;2.67;;;;;;;;;;781856;179;817294;-64
2023/11/14 06:46:46;;;;;;;3.60;2.50;;;;;;;;;;765873;180;810164;-67
2023/11/14 06:49:11;;;;;;;5.13;3.83;;;;;;;;;;775043;179;919193;-67
2023/11/14 06:51:36;;;;;;;3.93;3.00;;;;;;;;;;774797;179;923121;-64
2023/11/14 06:54:02;;;;;;;4.87;3.00;;;;;;;;;;774477;178;920321;-67
2023/11/14 06:56:28;;;;;;;4.60;3.07;;;;;;;;;;779027;178;918494;-64
2023/11/14 06:58:54;;;;;;;7.12;3.50;;;;;;;;;;776650;178;921070;-67
2023/11/14 07:01:20;;;;;;;3.70;2.45;;;;;;;;;;782122;178;917816;-64
2023/11/14 07:03:46;;;;;;;3.57;2.33;;;;;;;;;;772879;178;919511;-64
2023/11/14 07:06:12;;;;;;;3.97;2.20;;;;;;;;;;775246;178;918035;-64
2023/11/14 07:08:37;;;;;;;3.50;2.50;;;;;;;;;;782655;178;918945;-67
2023/11/14 07:11:03;;;;;;;4.20;2.60;;;;;;;;;;778593;178;918713;-68
2023/11/14 07:13:29;;;;;;;4.47;2.63;;;;;;;;;;779316;177;921094;-64
2023/11/14 07:15:55;;;;;;;4.00;2.00;;;;;;;;;;784796;179;842616;-67
2023/11/14 07:18:21;;;;;;;3.67;2.17;;;;;;;;;;782102;179;634318;-67
2023/11/14 07:20:48;;;;;;;4.30;2.00;;;;;;;;;;775073;179;916822;-63
2023/11/14 07:23:12;;;;;;;3.50;2.20;;;;;;;;;;774210;179;917685;-67
2023/11/14 07:25:43;;;;;;;3.83;1.57;;;;;;;;;;780967;179;918373;-63
2023/11/14 07:28:04;;;;;;;2.67;1.50;;;;;;;;;;774992;178;917182;-64
2023/11/14 07:30:31;;;;;;;3.50;1.80;;;;;;;;;;772015;179;918512;-63
2023/11/14 07:32:56;;;;;;;5.17;1.97;;;;;;;;;;779309;179;919255;-67
2023/11/14 07:35:22;;;;;;;3.90;1.33;;;;;;;;;;775471;179;919680;-64
2023/11/14 07:37:48;;;;;;;4.53;1.67;;;;;;;;;;776814;179;913725;-67
2023/11/14 07:40:13;;;;;;;6.97;2.23;;;;;;;;;;780871;179;919798;-63
2023/11/14 07:42:39;;;;;;;7.30;2.07;;;;;;;;;;777118;179;821590;-67
2023/11/14 07:45:06;;;;;;;5.23;1.50;;;;;;;;;;773354;179;918467;-64
2023/11/14 07:47:31;;;;;;;3.70;1.60;;;;;;;;;;774470;179;896419;-66
2023/11/14 07:49:57;;;;;;;3.73;1.20;;;;;;;;;;776943;179;814345;-63
2023/11/14 07:52:23;;;;;;;2.90;1.70;;;;;;;;;;776644;178;885318;-63
2023/11/14 07:54:52;;;;;;;3.77;2.00;;;;;;;;;;778600;179;917521;-63
2023/11/14 07:57:16;;;;;;;3.97;1.70;;;;;;;;;;780133;179;858566;-68
2023/11/14 07:59:41;;;;;;;4.70;2.17;;;;;;;;;;773859;179;717086;-64
2023/11/14 08:02:06;;;;;;;4.57;1.77;;;;;;;;;;778941;177;713961;-63
2023/11/14 08:04:32;;;;;;;7.10;1.80;;;;;;;;;;786250;178;930367;-63
2023/11/14 08:06:58;;;;;;;5.23;1.80;;;;;;;;;;782474;178;628647;-68
2023/11/14 08:09:24;;;;;;;4.10;1.90;;;;;;;;;;784247;178;626287;-62
2023/11/14 08:11:50;;;;;;;9.07;1.80;;;;;;;;;;788949;178;613688;-67
2023/11/14 08:14:16;;;;;;;5.40;1.67;;;;;;;;;;776702;178;629142;-61
2023/11/14 08:16:41;;;;;;;6.20;1.60;;;;;;;;;;779842;178;618199;-67
2023/11/14 08:19:07;;;;;;;3.78;1.83;;;;;;;;;;780554;177;914381;-66
2023/11/14 08:21:34;;;;;;;4.20;1.60;;;;;;;;;;779197;178;920086;-67
2023/11/14 08:23:59;;;;;;;3.60;1.40;;;;;;;;;;776005;177;922302;-67
2023/11/14 08:26:25;;;;;;;3.73;1.73;;;;;;;;;;773363;179;918479;-63
2023/11/14 08:28:50;;;;;;;4.03;1.70;;;;;;;;;;781212;177;915296;-62
2023/11/14 08:31:16;;;;;;;6.17;1.60;;;;;;;;;;776750;179;899379;-63
2023/11/14 08:33:43;;;;;;;6.87;2.10;;;;;;;;;;777713;179;919076;-62
2023/11/14 08:36:08;;;;;;;3.63;1.63;;;;;;;;;;780426;179;914208;-61
2023/11/14 08:38:34;;;;;;;3.17;1.40;;;;;;;;;;781106;177;918447;-62
2023/11/14 08:41:01;;;;;;;6.17;2.07;;;;;;;;;;769944;179;919869;-61
2023/11/14 08:43:26;;;;;;;5.00;2.57;;;;;;;;;;772502;177;932158;-63
2023/11/14 08:45:51;;;;;;;5.03;1.40;;;;;;;;;;773034;179;1018180;-65
2023/11/14 08:48:18;;;;;;;6.33;1.67;;;;;;;;;;782235;178;756098;-64
2023/11/14 08:50:43;;;;;;;4.43;1.70;;;;;;;;;;772604;179;916783;-64
2023/11/14 08:53:10;;;;;;;3.55;1.80;;;;;;;;;;779106;179;918244;-68
2023/11/14 08:55:35;;;;;;;8.63;1.90;;;;;;;;;;773946;179;918787;-68
2023/11/14 08:58:01;;;;;;;3.58;2.03;;;;;;;;;;772351;179;919087;-64
2023/11/14 09:00:27;;;;;;;5.33;2.17;;;;;;;;;;781710;179;1031537;-64
2023/11/14 09:02:52;;;;;;;5.63;1.47;;;;;;;;;;775996;177;913329;-68
2023/11/14 09:05:18;;;;;;;3.57;1.60;;;;;;;;;;776672;179;919162;-68
2023/11/14 09:07:44;;;;;;;5.82;1.90;;;;;;;;;;781351;179;919526;-64
2023/11/14 09:10:11;;;;;;;6.20;1.70;;;;;;;;;;772868;179;935071;-68
2023/11/14 09:12:37;;;;;;;7.70;2.80;;;;;;;;;;774844;177;916195;-63
2023/11/14 09:15:05;;;;;;;7.53;2.00;;;;;;;;;;773150;179;919249;-64
2023/11/14 09:17:28;;;;;;;9.53;1.70;;;;;;;;;;780791;175;919391;-64
2023/11/14 09:19:55;;;;;;;7.07;3.43;;;;;;;;;;778231;178;921470;-63
2023/11/14 09:22:20;;;;;;;6.78;2.05;;;;;;;;;;776965;178;824760;-68
2023/11/14 09:24:46;;;;;;;3.97;1.70;;;;;;;;;;781621;178;918240;-68
2023/11/14 09:27:12;;;;;;;5.23;2.10;;;;;;;;;;779722;178;922529;-68
2023/11/14 09:29:38;;;;;;;4.77;2.03;;;;;;;;;;777344;178;908250;-68
2023/11/14 09:32:04;;;;;;;5.27;2.70;;;;;;;;;;781396;178;917909;-68
2023/11/14 09:34:30;;;;;;;6.13;2.07;;;;;;;;;;778489;178;919349;-68
2023/11/14 09:36:56;;;;;;;4.57;1.93;;;;;;;;;;773959;179;919133;-68
2023/11/14 09:39:22;;;;;;;5.70;3.53;;;;;;;;;;774843;179;918354;-67
2023/11/14 09:41:49;;;;;;;6.83;3.87;;;;;;;;;;777875;179;817125;-69
2023/11/14 09:44:15;;;;;;;8.80;3.90;;;;;;;;;;780101;177;866339;-67
2023/11/14 09:46:41;;;;;;;8.60;2.08;;;;;;;;;;777240;179;920329;-65
2023/11/14 09:49:08;;;;;;;9.10;2.50;;;;;;;;;;779690;178;816518;-64
2023/11/14 09:51:33;;;;;;;6.27;2.23;;;;;;;;;;776307;179;918562;-68
2023/11/14 09:53:59;;;;;;;5.23;1.40;;;;;;;;;;776406;175;891220;-67
2023/11/14 09:56:25;;;;;;;6.17;2.17;;;;;;;;;;782289;179;915853;-68
2023/11/14 09:58:52;;;;;;;4.10;1.80;;;;;;;;;;774167;179;812957;-67
2023/11/14 10:01:17;;;;;;;7.82;2.22;;;;;;;;;;774705;179;915771;-67
2023/11/14 10:03:43;;;;;;;6.78;1.85;;;;;;;;;;773860;179;918287;-65
2023/11/14 10:06:09;;;;;;;7.53;1.90;;;;;;;;;;773864;180;918847;-66
2023/11/14 10:08:36;;;;;;;8.37;2.90;;;;;;;;;;782596;179;819329;-68
2023/11/14 10:11:05;;;;;;;6.23;1.83;;;;;;;;;;776107;179;815480;-64
2023/11/14 10:13:31;;;;;;;6.60;1.83;;;;;;;;;;780206;179;907652;-68
2023/11/14 10:15:56;;;;;;;8.57;2.22;;;;;;;;;;776366;179;918946;-64
2023/11/14 10:18:29;;;;;;;5.53;1.80;;;;;;;;;;773526;179;845723;-68
2023/11/14 10:20:54;;;;;;;5.13;2.13;;;;;;;;;;772166;179;918334;-65
2023/11/14 10:23:20;;;;;;;8.70;2.10;;;;;;;;;;776411;179;922789;-66
2023/11/14 10:25:46;;;;;;;7.50;1.97;;;;;;;;;;768953;180;817269;-67
2023/11/14 10:28:11;;;;;;;5.50;1.87;;;;;;;;;;777349;176;918616;-65
2023/11/14 10:30:38;;;;;;;3.60;1.63;;;;;;;;;;785985;178;714937;-68
2023/11/14 10:33:04;;;;;;;9.43;1.93;;;;;;;;;;776441;178;914755;-67
2023/11/14 10:35:30;;;;;;;8.48;2.47;;;;;;;;;;775413;178;913228;-68
2023/11/14 10:37:56;;;;;;;10.37;2.33;;;;;;;;;;781063;178;919441;-68
2023/11/14 10:40:21;;;;;;;8.13;1.98;;;;;;;;;;774660;178;918893;-64
2023/11/14 10:42:50;;;;;;;8.87;2.37;;;;;;;;;;775823;178;818643;-65
2023/11/14 10:45:16;;;;;;;9.60;2.23;;;;;;;;;;777227;178;918809;-66
2023/11/14 10:47:41;;;;;;;6.17;3.23;;;;;;;;;;778997;179;818929;-65
2023/11/14 10:50:08;;;;;;;6.57;2.10;;;;;;;;;;777990;178;918354;-67
2023/11/14 10:52:36;;;;;;;9.63;1.90;;;;;;;;;;776175;179;822228;-69
2023/11/14 10:55:01;;;;;;;3.97;1.83;;;;;;;;;;779784;179;816181;-65
2023/11/14 10:57:27;;;;;;;4.93;1.80;;;;;;;;;;777317;175;835625;-65
2023/11/14 10:59:53;;;;;;;6.50;1.85;;;;;;;;;;776778;179;918678;-66
2023/11/14 11:02:19;;;;;;;6.43;1.80;;;;;;;;;;782656;179;918735;-68
2023/11/14 11:04:44;;;;;;;7.00;1.70;;;;;;;;;;776512;178;835344;-66
2023/11/14 11:07:10;;;;;;;7.80;1.80;;;;;;;;;;776042;176;919197;-68
2023/11/14 11:09:36;;;;;;;15.03;2.57;;;;;;;;;;776012;179;919862;-65
2023/11/14 11:12:02;;;;;;;7.45;2.05;;;;;;;;;;784640;177;849754;-68
2023/11/14 11:14:28;;;;;;;5.70;2.03;;;;;;;;;;776971;179;925010;-65
2023/11/14 11:16:54;;;;;;;3.67;1.30;;;;;;;;;;778199;178;848415;-68
2023/11/14 11:19:25;;;;;;;3.90;1.57;;;;;;;;;;778788;179;891082;-68
2023/11/14 11:21:56;;;;;;;10.80;2.17;;;;;;;;;;776505;179;818496;-65
2023/11/14 11:24:23;;;;;;;5.97;1.90;;;;;;;;;;777182;179;813399;-65
2023/11/14 11:26:53;;;;;;;7.33;2.30;;;;;;;;;;775112;179;920539;-68
2023/11/14 11:29:25;;;;;;;7.47;2.37;;;;;;;;;;778784;179;748684;-66
2023/11/14 11:32:06;;;;;;;7.00;2.07;;;;;;;;;;773085;179;914962;-65
2023/11/14 11:34:32;;;;;;;6.50;2.40;;;;;;;;;;772021;180;918578;-65
2023/11/14 11:36:57;;;;;;;7.33;2.97;;;;;;;;;;777555;178;919493;-68
2023/11/14 11:39:23;;;;;;;9.43;3.00;;;;;;;;;;777606;178;914803;-65
2023/11/14 11:41:54;;;;;;;8.80;1.77;;;;;;;;;;781837;178;919025;-66
2023/11/14 11:44:21;;;;;;;6.87;2.20;;;;;;;;;;778973;178;918199;-64
2023/11/14 11:46:46;;;;;;;9.02;2.40;;;;;;;;;;778503;178;919668;-68
2023/11/14 11:49:16;;;;;;;3.60;1.80;;;;;;;;;;779784;178;896231;-67
2023/11/14 11:51:43;;;;;;;5.93;2.00;;;;;;;;;;775830;180;920081;-68
2023/11/14 11:54:24;;;;;;;4.47;2.17;;;;;;;;;;773899;177;918632;-66
2023/11/14 11:56:50;;;;;;;9.93;2.40;;;;;;;;;;765381;180;919770;-68
2023/11/14 11:59:15;;;;;;;6.37;2.43;;;;;;;;;;776837;178;818842;-68
2023/11/14 12:01:46;;;;;;;7.87;2.40;;;;;;;;;;781377;179;813909;-68
2023/11/14 12:04:12;;;;;;;11.13;2.53;;;;;;;;;;777475;179;916045;-69
2023/11/14 12:06:37;;;;;;;9.57;1.93;;;;;;;;;;775902;179;917686;-69
2023/11/14 12:09:05;;;;;;;5.73;2.00;;;;;;;;;;780053;179;919947;-69
2023/11/14 12:11:34;;;;;;;5.33;2.53;;;;;;;;;;772610;179;919074;-69
2023/11/14 12:13:55;;;;;;;16.83;2.07;;;;;;;;;;780448;175;816934;-66
2023/11/14 12:16:21;;;;;;;6.13;2.53;;;;;;;;;;775883;179;816117;-66
2023/11/14 12:18:46;;;;;;;4.53;1.93;;;;;;;;;;778215;179;918557;-65
2023/11/14 12:21:12;;;;;;;5.10;2.30;;;;;;;;;;775429;179;915357;-69
2023/11/14 12:23:38;;;;;;;9.13;1.80;;;;;;;;;;775124;177;893929;-66
2023/11/14 12:26:04;;;;;;;12.23;2.27;;;;;;;;;;785439;179;817981;-69
2023/11/14 12:28:29;;;;;;;7.07;2.20;;;;;;;;;;776362;179;917076;-66
2023/11/14 12:30:57;;;;;;;10.33;1.90;;;;;;;;;;777356;179;927810;-66
2023/11/14 12:33:22;;;;;;;3.87;1.63;;;;;;;;;;782305;178;911876;-66
2023/11/14 12:35:50;;;;;;;4.37;1.80;;;;;;;;;;775755;179;817944;-69
2023/11/14 12:38:14;;;;;;;7.13;2.07;;;;;;;;;;772745;180;932091;-68
2023/11/14 12:40:40;;;;;;;8.70;1.73;;;;;;;;;;776355;179;901346;-68
2023/11/14 12:43:06;;;;;;;8.60;2.13;;;;;;;;;;781249;179;915093;-69
2023/11/14 12:45:32;;;;;;;14.10;2.63;;;;;;;;;;777307;178;916485;-65
2023/11/14 12:47:58;;;;;;;9.30;2.97;;;;;;;;;;770517;179;918343;-68
2023/11/14 12:50:24;;;;;;;7.10;2.23;;;;;;;;;;782349;177;899585;-69
2023/11/14 12:52:52;;;;;;;7.47;2.20;;;;;;;;;;772580;178;919517;-69
2023/11/14 12:55:18;;;;;;;6.60;2.37;;;;;;;;;;775179;179;920001;-65
2023/11/14 12:57:44;;;;;;;7.10;2.87;;;;;;;;;;783472;178;816627;-69
2023/11/14 13:00:12;;;;;;;4.40;1.70;;;;;;;;;;772789;179;922828;-68
2023/11/14 13:02:36;;;;;;;6.10;2.40;;;;;;;;;;775308;178;920127;-66
2023/11/14 13:05:02;;;;;;;4.40;1.63;;;;;;;;;;778874;178;918670;-68
2023/11/14 13:07:28;;;;;;;3.83;1.63;;;;;;;;;;783906;176;917940;-65
2023/11/14 13:09:54;;;;;;;8.67;2.00;;;;;;;;;;769825;179;919619;-73
2023/11/14 13:12:19;;;;;;;5.43;2.07;;;;;;;;;;775697;178;816576;-64
2023/11/14 13:14:45;;;;;;;4.87;2.10;;;;;;;;;;783693;179;814524;-66
2023/11/14 13:17:12;;;;;;;13.10;2.57;;;;;;;;;;776897;179;930674;-68
2023/11/14 13:19:37;;;;;;;6.43;2.70;;;;;;;;;;777304;178;818819;-70
2023/11/14 13:22:03;;;;;;;12.03;2.40;;;;;;;;;;778533;175;885087;-65
2023/11/14 13:24:29;;;;;;;6.62;2.95;;;;;;;;;;776112;178;919541;-68
2023/11/14 13:26:54;;;;;;;10.10;2.67;;;;;;;;;;775660;175;921746;-67
2023/11/14 13:29:21;;;;;;;5.78;1.65;;;;;;;;;;777900;179;918521;-66
2023/11/14 13:31:47;;;;;;;11.10;2.00;;;;;;;;;;768895;179;723397;-66
2023/11/14 13:34:12;;;;;;;7.00;1.60;;;;;;;;;;774831;178;853200;-66
2023/11/14 13:36:39;;;;;;;4.37;1.53;;;;;;;;;;779935;178;918256;-69
2023/11/14 13:39:05;;;;;;;6.77;1.90;;;;;;;;;;786707;178;824839;-66
2023/11/14 13:41:30;;;;;;;5.83;1.70;;;;;;;;;;777236;179;920717;-67
2023/11/14 13:43:56;;;;;;;10.07;2.00;;;;;;;;;;774027;179;918352;-65
2023/11/14 13:46:22;;;;;;;10.27;2.13;;;;;;;;;;775801;179;919059;-69
2023/11/14 13:48:47;;;;;;;5.63;2.00;;;;;;;;;;774034;178;919153;-68
2023/11/14 13:51:13;;;;;;;5.10;2.43;;;;;;;;;;775512;178;912454;-67
2023/11/14 13:53:39;;;;;;;8.40;2.50;;;;;;;;;;781117;179;921540;-67
2023/11/14 13:56:05;;;;;;;8.13;2.40;;;;;;;;;;780177;179;817174;-69
2023/11/14 13:58:35;;;;;;;6.83;2.10;;;;;;;;;;774095;178;817834;-68
2023/11/14 14:00:57;;;;;;;6.87;2.70;;;;;;;;;;776251;179;817549;-68
2023/11/14 14:03:23;;;;;;;8.13;2.70;;;;;;;;;;787116;178;702959;-68
2023/11/14 14:05:48;;;;;;;8.73;2.70;;;;;;;;;;778337;178;918944;-67
2023/11/14 14:08:14;;;;;;;7.68;2.58;;;;;;;;;;774013;178;1020949;-67
2023/11/14 14:10:40;;;;;;;7.20;2.20;;;;;;;;;;785993;178;667111;-68
2023/11/14 14:13:07;;;;;;;8.97;2.47;;;;;;;;;;776861;178;917818;-69
2023/11/14 14:15:35;;;;;;;5.57;1.80;;;;;;;;;;778395;178;917728;-68
2023/11/14 14:17:58;;;;;;;11.70;2.33;;;;;;;;;;784235;178;919954;-64
2023/11/14 14:20:25;;;;;;;7.10;2.67;;;;;;;;;;778988;178;894195;-68